Accueil
METAR-TAF:

METAR-TAF

Aéroports :

Lelystad, Pays-Bas

latitude: 52-27-37N, longitude: 005-31-38E, altitude: -4 m

Observation

Le bulletin a été fait il y a 34 minutes, à 02:55 UTC
Vent 4 kt de ouest
Température 11°C
Humidité 94%
Pression 1012 hPa
Visibilité 10 km ou plus
Quelques nuages à une hauteur de 2500 ft

METAR: EHLE 020255Z AUTO 26004KT 9999 FEW025 11/10 Q1012

Heure: 05:29 (03:29 UTC)

Prévision

Le bulletin a été fait il y a 4 heures et 37 minutes, à 22:52 UTC
Prévision valable du 02 à 00 UTC au 03 à 06 UTC
Vent 6 kt de ouest/nord-ouest
Visibilité 10 km ou plus
Quelques nuages à une hauteur de 2500 ft
Evoluant progressivement
du 02 à 17 UTC au 02 à 20 UTC
Vent 3 kt de direction variable
Probabilité 30%
du 03 à 02 UTC au 03 à 06 UTC
Visibilité: 1500 m
brume

TAF: EHLE 012252Z 0200/0306 29006KT 9999 FEW025 BECMG 0217/0220 VRB03KT PROB30 0302/0306 1500 BR

Observations et prévisions météorologiques de plus de 4000 aéroports (messages METAR et TAF).

Les stations disponibles sont représentées par des disques jaunes et rouges sur la carte.

Passer la souris dessus pour voir le nom de la station.

Cliquer dessus pour voir les observations et prévisions météorologiques.

Pour changer de carte: cliquez sur les boutons verts avec une croix noire pour zoomer, sur le bouton vert avec un tiret pour effectuer un zoom arrière, ou sur les flèches vertes pour les cartes adjacentes.


METAR-TAF: